TimeCDT,TemperatureF,Dew PointF,Humidity,Sea Level PressureIn,VisibilityMPH,Wind Direction,Wind SpeedMPH,Gust SpeedMPH,PrecipitationIn,Events,Conditions,WindDirDegrees,DateUTC
12:53 AM,66.9,62.1,84,29.97,10.0,SSE,13.8,-,0.00,,Partly Cloudy,150,2012-10-12 05:53:00
1:53 AM,68.0,61.0,78,29.96,10.0,South,18.4,-,N/A,,Clear,170,2012-10-12 06:53:00
2:53 AM,64.4,60.8,88,30.13,10.0,South,8.1,-,N/A,,Clear,180,2012-10-12 07:53:00
3:53 AM,64.0,61.0,90,29.99,10.0,SSW,9.2,-,N/A,,Clear,200,2012-10-12 08:53:00
4:40 AM,62.6,60.8,94,30.14,8.0,WSW,4.6,-,N/A,,Mostly Cloudy,240,2012-10-12 09:40:00
4:53 AM,62.1,60.1,93,30.01,7.0,North,4.6,-,N/A,,Overcast,10,2012-10-12 09:53:00
5:53 AM,57.9,52.0,81,30.05,10.0,North,12.7,-,N/A,,Overcast,360,2012-10-12 10:53:00
6:53 AM,53.1,41.0,64,30.09,10.0,North,15.0,-,N/A,,Overcast,350,2012-10-12 11:53:00
7:12 AM,51.8,39.2,62,30.20,10.0,North,13.8,-,N/A,,Overcast,350,2012-10-12 12:12:00
7:53 AM,51.1,39.0,63,30.12,10.0,NNW,12.7,-,N/A,,Overcast,340,2012-10-12 12:53:00
8:42 AM,51.8,37.4,58,30.24,10.0,NNW,10.4,-,N/A,Thunderstorm,Thunderstorm,330,2012-10-12 13:42:00
8:49 AM,51.8,37.4,58,30.25,10.0,NNW,11.5,-,N/A,Thunderstorm,Thunderstorm,330,2012-10-12 13:49:00
8:53 AM,51.8,37.4,58,30.16,10.0,NNW,11.5,-,N/A,Thunderstorm,Thunderstorm,330,2012-10-12 13:53:00
9:29 AM,51.8,37.4,58,30.28,10.0,NW,10.4,-,N/A,Thunderstorm,Thunderstorm,310,2012-10-12 14:29:00
9:53 AM,50.0,37.9,63,30.20,10.0,West,11.5,-,N/A,Thunderstorm,Thunderstorm,280,2012-10-12 14:53:00
10:31 AM,48.2,42.8,82,30.22,10.0,NNW,13.8,-,0.01,Rain,Light Rain,340,2012-10-12 15:31:00
10:50 AM,50.0,44.6,82,30.18,10.0,NNE,13.8,-,0.01,Rain,Light Rain,20,2012-10-12 15:50:00
10:53 AM,50.0,44.6,82,30.17,10.0,NNE,17.3,21.9,N/A,Rain,Light Rain,20,2012-10-12 15:53:00
11:27 AM,48.2,42.8,82,30.21,10.0,NNW,15.0,33.4,0.00,Rain,Light Rain,340,2012-10-12 16:27:00
11:44 AM,51.8,44.6,76,30.19,10.0,Variable,6.9,-,0.00,Rain,Light Rain,0,2012-10-12 16:44:00
11:53 AM,51.1,44.1,77,30.10,10.0,NNE,10.4,-,0.00,Rain,Light Rain,20,2012-10-12 16:53:00
12:33 PM,57.2,42.8,59,30.16,10.0,East,13.8,-,0.00,,Mostly Cloudy,80,2012-10-12 17:33:00
12:53 PM,54.0,42.1,64,30.06,10.0,East,12.7,-,0.00,,Mostly Cloudy,90,2012-10-12 17:53:00
1:53 PM,57.2,44.6,63,30.18,10.0,Calm,Calm,-,N/A,Thunderstorm,Thunderstorm,0,2012-10-12 18:53:00
2:31 PM,64.4,46.4,52,30.14,10.0,ENE,5.8,-,N/A,,Partly Cloudy,70,2012-10-12 19:31:00
2:53 PM,64.9,50.0,58,30.03,10.0,East,5.8,-,N/A,,Clear,100,2012-10-12 19:53:00
3:20 PM,66.2,53.6,64,30.14,10.0,East,8.1,-,N/A,,Mostly Cloudy,100,2012-10-12 20:20:00
3:53 PM,64.9,53.1,65,30.01,10.0,East,10.4,-,N/A,,Overcast,90,2012-10-12 20:53:00
4:01 PM,64.4,53.6,68,30.12,10.0,ESE,10.4,-,N/A,,Overcast,110,2012-10-12 21:01:00
4:53 PM,66.0,55.0,68,29.99,10.0,ESE,12.7,-,N/A,,Mostly Cloudy,120,2012-10-12 21:53:00
5:53 PM,66.9,57.0,70,29.97,10.0,SE,17.3,-,N/A,,Mostly Cloudy,130,2012-10-12 22:53:00
5:59 PM,66.2,57.2,73,30.07,10.0,SE,19.6,-,N/A,,Mostly Cloudy,130,2012-10-12 22:59:00
6:53 PM,63.0,57.0,81,29.96,10.0,ESE,13.8,-,N/A,,Clear,120,2012-10-12 23:53:00
7:53 PM,61.0,57.0,87,29.96,10.0,SE,19.6,-,N/A,,Partly Cloudy,140,2012-10-13 00:53:00
8:53 PM,62.1,59.0,90,29.97,10.0,SE,17.3,-,N/A,,Partly Cloudy,140,2012-10-13 01:53:00
9:08 PM,62.6,60.8,94,30.04,10.0,SE,18.4,25.3,N/A,,Scattered Clouds,140,2012-10-13 02:08:00
9:41 PM,62.6,60.8,94,30.06,9.0,SE,15.0,-,N/A,,Mostly Cloudy,140,2012-10-13 02:41:00
9:53 PM,62.1,60.1,93,29.99,9.0,SE,15.0,-,N/A,,Mostly Cloudy,140,2012-10-13 02:53:00
10:53 PM,62.1,60.1,93,29.97,10.0,SE,16.1,-,N/A,,Scattered Clouds,140,2012-10-13 03:53:00
11:53 PM,62.1,60.1,93,29.93,10.0,SSE,19.6,-,N/A,,Clear,150,2012-10-13 04:53:00